Главная страница
METAR-TAF:

METAR-TAF

Аэропорты :

Карлстад, Швеция

широта: 59-26-41N, долгота: 013-20-15E, высота над уровнем моря: 107 м

Текущие метеонаблюдения

Эта сводка был подготовлена 22 минут назад, в 20:50 UTC
Ветер 2 Узел от западный-юго-западный
Температура 5°C
Влажность 100%
Давление 1023 hPa
Видимость 10 км и более

METAR: ESOK 192050Z AUTO 25002KT 9999 NCD 05/05 Q1023

Время: 23:12 (21:12 UTC)


TAF: отсутствует

Метеонаблюдения и прогнозы для более 4000 аэропортов (сводки METAR и TAF).

Имеющиеся станции представлены на карте желтыми и красными точками.

Чтобы увидеть название станции, наведите на нее мышь.

Затем щелкните, чтобы увидеть метеонаблюдения и метеопрогнозы.

Управление картой: чтобы увеличить масштаб, щелкните зеленые кнопки с черным крестиком; чтобы уменьшить масштаб, щелкните зеленую кнопку с тире; для просмотра соседних карт щелкайте зеленые стрелки.


METAR-TAF: